Time;durP1;ratioP1;P1;durP2;ratioP2;P2;SDS_P1;SDS_P2;PMS_P1;PMS_P2;Temp;Humidity;BMP_temperature;BMP_pressure;BME280_temperature;BME280_humidity;BME280_pressure;Samples;Min_cycle;Max_cycle;Signal;HPM_P1;HPM_P2
2024/01/31 00:01:39;;;;;;;31.10;25.92;;;;;;;1.96;65.74;100920.69;5128391;28;20043;-71
2024/01/31 00:04:07;;;;;;;27.98;21.75;;;;;;;1.91;66.05;100915.44;5128397;28;20051;-70
2024/01/31 00:06:34;;;;;;;22.05;18.42;;;;;;;1.89;65.97;100918.03;5128510;28;20039;-71
2024/01/31 00:09:00;;;;;;;24.50;18.63;;;;;;;1.90;66.01;100924.13;5127966;28;20288;-70
2024/01/31 00:11:28;;;;;;;21.20;15.70;;;;;;;1.86;66.28;100911.91;5128569;28;20043;-70
2024/01/31 00:13:55;;;;;;;23.45;18.75;;;;;;;-0.21;66.35;100556.53;5128224;28;20366;-70
2024/01/31 00:16:22;;;;;;;21.08;17.40;;;;;;;1.22;66.53;100807.88;5127038;28;20042;-70
2024/01/31 00:18:49;;;;;;;23.35;18.10;;;;;;;1.86;66.26;100917.16;5128106;28;20272;-70
2024/01/31 00:21:17;;;;;;;22.08;17.00;;;;;;;1.82;66.74;100907.53;5128384;28;20039;-70
2024/01/31 00:23:44;;;;;;;24.67;17.98;;;;;;;1.83;66.53;100911.91;5128326;28;20039;-70
2024/01/31 00:26:11;;;;;;;25.20;18.85;;;;;;;1.86;66.36;100911.91;5127721;28;20047;-69
2024/01/31 00:28:37;;;;;;;24.05;17.98;;;;;;;1.85;66.47;100911.03;5127833;28;20054;-69
2024/01/31 00:31:04;;;;;;;23.60;18.58;;;;;;;1.82;66.75;100912.78;5128107;28;20039;-69
2024/01/31 00:33:31;;;;;;;24.73;19.50;;;;;;;1.80;66.94;100914.50;5127802;28;20077;-70
2024/01/31 00:35:58;;;;;;;23.77;19.10;;;;;;;1.76;67.05;100910.13;5127814;28;20043;-69
2024/01/31 00:38:26;;;;;;;23.95;18.00;;;;;;;1.71;67.05;100920.56;5127424;28;20043;-69
2024/01/31 00:40:52;;;;;;;24.40;18.63;;;;;;;1.75;66.34;100914.47;5127963;28;20039;-70
2024/01/31 00:43:19;;;;;;;28.35;19.33;;;;;;;1.74;66.73;100907.50;5127619;28;20055;-70
2024/01/31 00:45:45;;;;;;;25.35;18.05;;;;;;;1.77;66.39;100914.47;5127308;28;20043;-70
2024/01/31 00:48:12;;;;;;;25.45;18.58;;;;;;;1.58;66.15;100884.72;5126717;28;20085;-71
2024/01/31 00:50:39;;;;;;;23.73;17.95;;;;;;;1.76;66.35;100923.19;5127690;28;20089;-70
2024/01/31 00:53:05;;;;;;;23.67;19.08;;;;;;;1.55;66.56;100882.97;5126370;28;20096;-70
2024/01/31 00:55:34;;;;;;;25.67;18.38;;;;;;;0.63;66.79;100736.16;5127377;28;20051;-70
2024/01/31 00:58:01;;;;;;;26.13;19.65;;;;;;;1.67;67.02;100916.19;5127348;28;20050;-71
2024/01/31 01:00:27;;;;;;;28.65;20.63;;;;;;;1.68;67.04;100914.44;5127666;28;20074;-70
2024/01/31 01:02:54;;;;;;;26.67;19.60;;;;;;;1.72;66.78;100913.59;5126974;28;20055;-69
2024/01/31 01:05:21;;;;;;;23.55;19.58;;;;;;;1.64;67.40;100913.53;5127582;28;20054;-71
2024/01/31 01:07:48;;;;;;;25.65;19.85;;;;;;;1.66;67.20;100918.78;5126501;28;20108;-71
2024/01/31 01:10:15;;;;;;;25.27;19.27;;;;;;;1.03;67.61;100841.72;5126700;28;20059;-73
2024/01/31 01:12:43;;;;;;;26.35;19.63;;;;;;;1.64;67.13;100917.91;5126233;28;20035;-71
2024/01/31 01:15:10;;;;;;;27.27;19.75;;;;;;;1.61;67.53;100913.53;5127419;28;20284;-71
2024/01/31 01:17:38;;;;;;;25.75;19.13;;;;;;;1.45;67.84;100904.69;5127387;28;20071;-70
2024/01/31 01:20:06;;;;;;;26.80;19.60;;;;;;;1.58;67.38;100909.13;5127147;28;20173;-70
2024/01/31 01:22:33;;;;;;;26.45;18.20;;;;;;;1.55;67.42;100903.88;5126970;28;20111;-71
2024/01/31 01:24:59;;;;;;;25.80;19.23;;;;;;;1.53;67.57;100903.00;5126625;28;20356;-70
2024/01/31 01:27:26;;;;;;;22.77;17.75;;;;;;;1.56;67.26;100905.63;5125739;28;20047;-70
2024/01/31 01:29:54;;;;;;;22.42;18.10;;;;;;;1.57;67.11;100902.16;5126387;28;20035;-69
2024/01/31 01:32:21;;;;;;;26.10;19.38;;;;;;;1.53;67.28;100905.59;5126518;28;20224;-70
2024/01/31 01:34:48;;;;;;;24.15;20.17;;;;;;;1.52;67.30;100902.97;5126709;28;20043;-70
2024/01/31 01:37:14;;;;;;;26.70;21.23;;;;;;;1.49;67.14;100896.00;5126374;28;20310;-70
2024/01/31 01:39:43;;;;;;;25.85;20.70;;;;;;;1.45;67.34;100899.47;5126651;28;20092;-70
2024/01/31 01:42:09;;;;;;;25.52;19.48;;;;;;;1.41;67.36;100897.69;5126953;28;20039;-69
2024/01/31 01:44:43;;;;;;;26.08;19.98;;;;;;;1.40;67.54;100890.72;5126676;28;20069;-69
2024/01/31 01:47:11;;;;;;;27.23;21.83;;;;;;;1.38;67.58;100895.06;5126876;28;20341;-70
2024/01/31 01:49:39;;;;;;;24.95;19.00;;;;;;;1.41;67.26;100886.38;5126475;27;20039;-70
2024/01/31 01:52:06;;;;;;;23.35;19.25;;;;;;;1.36;67.54;100891.56;5126406;28;20044;-70
2024/01/31 01:54:33;;;;;;;25.40;18.98;;;;;;;1.40;67.24;100895.06;5126156;28;20067;-70
2024/01/31 01:57:00;;;;;;;26.33;19.58;;;;;;;1.41;67.28;100888.97;5126119;28;20040;-70
2024/01/31 01:59:27;;;;;;;25.63;19.00;;;;;;;1.38;67.35;100897.66;5126144;28;20292;-70
2024/01/31 02:01:54;;;;;;;27.70;20.15;;;;;;;1.35;67.17;100899.38;5125371;28;20043;-69
2024/01/31 02:04:23;;;;;;;24.92;19.63;;;;;;;1.13;67.39;100865.28;5126049;28;20054;-70
2024/01/31 02:06:49;;;;;;;24.55;18.60;;;;;;;1.35;67.26;100897.66;5126097;28;20349;-69
2024/01/31 02:09:16;;;;;;;27.13;18.52;;;;;;;1.29;67.61;100900.22;5126203;28;20204;-69
2024/01/31 02:11:43;;;;;;;31.20;19.70;;;;;;;1.32;67.41;100891.53;5125655;28;20050;-70
2024/01/31 02:14:09;;;;;;;24.70;19.63;;;;;;;1.31;67.37;100901.09;5126252;28;20043;-69
2024/01/31 02:16:36;;;;;;;25.00;19.27;;;;;;;1.02;67.85;100856.50;5126550;28;20059;-69
2024/01/31 02:19:03;;;;;;;24.02;20.48;;;;;;;1.21;67.85;100899.28;5126214;28;20044;-69
2024/01/31 02:21:33;;;;;;;27.00;21.08;;;;;;;1.11;68.10;100889.63;5130312;28;20107;-70
2024/01/31 02:24:01;;;;;;;23.10;19.55;;;;;;;1.12;67.94;100899.22;5130351;28;20059;-70
2024/01/31 02:26:28;;;;;;;29.67;19.60;;;;;;;1.18;67.95;100901.88;5130327;28;20101;-70
2024/01/31 02:28:55;;;;;;;25.20;20.15;;;;;;;1.18;67.85;100896.66;5130270;28;20043;-70
2024/01/31 02:31:22;;;;;;;23.75;19.05;;;;;;;1.18;67.76;100894.03;5129964;28;20053;-69
2024/01/31 02:33:48;;;;;;;26.05;19.52;;;;;;;1.14;68.02;100895.75;5129363;28;20047;-69
2024/01/31 02:36:15;;;;;;;27.17;21.33;;;;;;;1.14;68.08;100898.38;5130171;28;20043;-69
2024/01/31 02:38:42;;;;;;;27.38;18.85;;;;;;;1.17;67.76;100895.78;5130348;28;20108;-70
2024/01/31 02:41:10;;;;;;;26.23;20.25;;;;;;;1.21;67.79;100888.84;5129759;28;20212;-70
2024/01/31 02:43:36;;;;;;;27.48;20.58;;;;;;;1.22;68.04;100887.97;5130234;28;20192;-70
2024/01/31 02:46:03;;;;;;;31.23;24.13;;;;;;;1.25;68.24;100891.50;5129920;28;20051;-70
2024/01/31 02:48:29;;;;;;;28.65;21.73;;;;;;;1.29;68.73;100895.00;5129896;28;20043;-70
2024/01/31 02:50:56;;;;;;;31.30;22.40;;;;;;;1.29;69.03;100886.28;5129812;28;20212;-69
2024/01/31 02:53:23;;;;;;;26.08;19.80;;;;;;;1.28;69.04;100887.16;5129820;28;20055;-70
2024/01/31 02:55:49;;;;;;;26.45;20.27;;;;;;;1.26;68.71;100889.75;5128919;28;20047;-70
2024/01/31 02:58:17;;;;;;;29.73;20.83;;;;;;;1.25;69.08;100891.50;5129694;28;20043;-70
2024/01/31 03:00:44;;;;;;;26.75;20.75;;;;;;;1.22;68.94;100899.31;5129438;28;20059;-70
2024/01/31 03:03:10;;;;;;;28.25;21.13;;;;;;;1.19;68.64;100893.19;5129924;28;20039;-70
2024/01/31 03:05:37;;;;;;;25.50;19.55;;;;;;;1.17;69.06;100895.78;5129848;28;20188;-70
2024/01/31 03:08:04;;;;;;;30.42;22.95;;;;;;;1.13;69.34;100893.13;5129095;28;20070;-70
2024/01/31 03:10:32;;;;;;;32.05;22.20;;;;;;;1.13;68.99;100890.53;5129454;28;20046;-70
2024/01/31 03:12:59;;;;;;;27.00;20.70;;;;;;;1.13;69.10;100888.78;5129460;28;20329;-70
2024/01/31 03:15:27;;;;;;;29.58;21.60;;;;;;;1.14;68.94;100892.28;5129123;28;20051;-70
2024/01/31 03:17:53;;;;;;;32.33;23.85;;;;;;;1.09;68.73;100893.97;5129057;28;20040;-69
2024/01/31 03:20:20;;;;;;;31.38;23.58;;;;;;;1.09;69.10;100891.38;5129838;28;20295;-70
2024/01/31 03:22:46;;;;;;;27.02;21.85;;;;;;;0.81;69.24;100856.34;5129250;28;20062;-70
2024/01/31 03:25:13;;;;;;;30.23;23.75;;;;;;;1.04;69.26;100888.72;5129461;28;20051;-70
2024/01/31 03:27:40;;;;;;;29.00;22.00;;;;;;;1.07;69.00;100893.09;5128048;28;20039;-70
2024/01/31 03:30:08;;;;;;;27.98;21.70;;;;;;;1.05;69.30;100881.75;5129036;28;20192;-70
2024/01/31 03:32:36;;;;;;;30.33;22.55;;;;;;;1.00;69.50;100886.06;5128390;28;20106;-70
2024/01/31 03:35:03;;;;;;;28.00;22.15;;;;;;;0.99;69.29;100886.94;5129319;28;20067;-69
2024/01/31 03:37:29;;;;;;;29.67;23.13;;;;;;;0.97;69.45;100891.28;5128695;28;20062;-71
2024/01/31 03:39:56;;;;;;;27.45;21.25;;;;;;;0.99;69.30;100886.94;5128892;28;20039;-69
2024/01/31 03:42:22;;;;;;;28.70;21.58;;;;;;;0.96;69.25;100885.16;5129435;28;20183;-70
2024/01/31 03:44:49;;;;;;;27.10;22.63;;;;;;;0.70;69.77;100857.97;5129004;28;20077;-70
2024/01/31 03:47:16;;;;;;;27.13;20.98;;;;;;;0.87;69.69;100885.09;5128851;28;20039;-70
2024/01/31 03:49:45;;;;;;;28.38;21.77;;;;;;;0.92;69.53;100888.63;5128848;28;20102;-70
2024/01/31 03:52:12;;;;;;;28.98;22.42;;;;;;;0.92;69.76;100892.09;5128697;28;20104;-70
2024/01/31 03:54:39;;;;;;;26.65;21.48;;;;;;;0.92;69.63;100888.63;5127473;28;20035;-70
2024/01/31 03:57:06;;;;;;;30.52;23.63;;;;;;;0.81;70.20;100891.13;5128531;28;20043;-70
2024/01/31 03:59:32;;;;;;;31.17;23.33;;;;;;;0.86;70.24;100889.44;5128522;28;20106;-70
2024/01/31 04:01:59;;;;;;;29.88;22.80;;;;;;;0.83;70.04;100889.41;5128504;28;20065;-70
2024/01/31 04:04:26;;;;;;;26.45;20.50;;;;;;;0.83;70.22;100888.53;5128168;28;20249;-70
2024/01/31 04:06:54;;;;;;;33.40;24.55;;;;;;;0.88;69.81;100902.50;5127871;28;20377;-70
2024/01/31 04:09:20;;;;;;;30.05;22.20;;;;;;;0.83;70.24;100886.81;5128617;28;20092;-70
2024/01/31 04:11:47;;;;;;;31.70;23.95;;;;;;;0.45;70.03;100822.97;5127948;28;20039;-70
2024/01/31 04:14:14;;;;;;;30.73;22.40;;;;;;;0.89;69.84;100894.69;5128215;28;20043;-70
2024/01/31 04:16:40;;;;;;;28.08;22.02;;;;;;;0.89;70.22;100901.66;5128532;28;20051;-70
2024/01/31 04:19:08;;;;;;;30.63;23.73;;;;;;;0.89;70.15;100897.31;5127864;28;20250;-70
2024/01/31 04:21:34;;;;;;;31.33;22.70;;;;;;;0.86;70.28;100901.63;5128084;28;20035;-70
2024/01/31 04:24:02;;;;;;;32.17;23.30;;;;;;;0.84;70.18;100904.22;5127735;28;20307;-70
2024/01/31 04:26:29;;;;;;;30.33;22.48;;;;;;;0.90;70.15;100904.28;5127207;28;20088;-70
2024/01/31 04:28:55;;;;;;;33.40;24.63;;;;;;;0.88;70.26;100903.38;5128223;28;20039;-70
2024/01/31 04:31:22;;;;;;;34.42;24.50;;;;;;;0.89;70.22;100901.66;5126695;28;20219;-70
2024/01/31 04:33:49;;;;;;;31.98;23.35;;;;;;;0.90;70.23;100909.50;5127534;28;20100;-70
2024/01/31 04:36:15;;;;;;;28.42;23.40;;;;;;;0.91;70.29;100905.16;5127791;28;20084;-70
2024/01/31 04:38:42;;;;;;;33.00;24.67;;;;;;;0.90;70.11;100901.66;5127756;28;20266;-70
2024/01/31 04:41:10;;;;;;;32.90;24.65;;;;;;;0.89;70.13;100894.69;5127706;28;20167;-70
2024/01/31 04:43:37;;;;;;;30.58;23.63;;;;;;;0.82;70.45;100903.34;5126539;28;20054;-70
2024/01/31 04:46:03;;;;;;;29.42;22.15;;;;;;;0.84;70.30;100900.72;5127560;28;20119;-70
2024/01/31 04:48:30;;;;;;;30.52;23.77;;;;;;;0.79;70.49;100902.44;5127304;28;20104;-70
2024/01/31 04:50:57;;;;;;;33.65;25.08;;;;;;;0.48;70.41;100852.56;5127349;28;20088;-70
2024/01/31 04:53:23;;;;;;;35.22;25.95;;;;;;;0.73;70.74;100907.59;5127199;28;20040;-70
2024/01/31 04:55:50;;;;;;;33.80;25.20;;;;;;;0.81;70.38;100901.59;5127611;28;20039;-70
2024/01/31 04:58:18;;;;;;;32.67;23.77;;;;;;;0.79;70.32;100898.09;5127589;28;20040;-70
2024/01/31 05:00:45;;;;;;;29.42;23.02;;;;;;;0.79;70.60;100902.44;5127249;28;20047;-70
2024/01/31 05:03:11;;;;;;;29.17;23.40;;;;;;;-0.35;70.87;100740.50;5127026;28;20089;-70
2024/01/31 05:05:38;;;;;;;33.00;21.50;;;;;;;0.69;70.72;100906.69;5127017;28;20039;-70
2024/01/31 05:08:05;;;;;;;30.88;23.48;;;;;;;0.76;70.52;100913.72;5127443;28;20234;-70
2024/01/31 05:10:34;;;;;;;30.27;22.95;;;;;;;0.76;70.19;100907.63;5126822;28;20039;-70
2024/01/31 05:13:01;;;;;;;30.27;23.52;;;;;;;0.72;70.46;100905.84;5127153;28;20106;-70
2024/01/31 05:15:30;;;;;;;33.05;23.58;;;;;;;0.51;70.61;100865.63;5125962;28;20035;-70
2024/01/31 05:17:57;;;;;;;34.28;24.67;;;;;;;0.60;70.74;100911.81;5125838;28;20103;-70
2024/01/31 05:20:24;;;;;;;32.90;23.42;;;;;;;0.64;70.60;100908.38;5127210;28;20093;-70
2024/01/31 05:22:50;;;;;;;29.73;22.73;;;;;;;0.70;70.38;100911.03;5126889;28;20043;-70
2024/01/31 05:25:17;;;;;;;29.58;23.25;;;;;;;0.70;70.32;100902.34;5126836;28;20047;-70
2024/01/31 05:27:44;;;;;;;27.48;20.67;;;;;;;-0.88;70.36;100640.94;5125719;28;20088;-70
2024/01/31 05:30:11;;;;;;;29.90;24.73;;;;;;;0.67;70.43;100900.56;5127000;28;20237;-70
2024/01/31 05:32:39;;;;;;;31.63;23.88;;;;;;;0.70;70.43;100908.44;5127020;28;20105;-70
2024/01/31 05:35:07;;;;;;;30.33;23.20;;;;;;;0.72;70.37;100901.50;5126954;28;20040;-70
2024/01/31 05:37:34;;;;;;;31.23;23.85;;;;;;;0.72;70.51;100906.72;5126394;28;20043;-70
2024/01/31 05:40:00;;;;;;;30.88;23.27;;;;;;;0.72;70.51;100900.63;5126239;28;20047;-70
2024/01/31 05:42:27;;;;;;;29.35;21.25;;;;;;;0.70;70.45;100912.78;5126557;28;20040;-70
2024/01/31 05:44:53;;;;;;;26.90;21.75;;;;;;;0.53;70.23;100876.09;5125750;28;20051;-70
2024/01/31 05:47:21;;;;;;;31.38;22.50;;;;;;;0.72;70.30;100911.06;5126422;28;20093;-70
2024/01/31 05:49:49;;;;;;;33.03;23.38;;;;;;;0.46;70.49;100871.69;5126374;28;20104;-71
2024/01/31 05:52:16;;;;;;;32.85;22.55;;;;;;;0.63;71.00;100916.19;5125739;28;20288;-70
2024/01/31 05:54:43;;;;;;;33.28;24.95;;;;;;;0.68;70.67;100915.38;5126076;28;20052;-70
2024/01/31 05:57:09;;;;;;;33.40;23.55;;;;;;;0.71;70.82;100911.91;5126329;28;20039;-70
2024/01/31 05:59:40;;;;;;;32.08;23.17;;;;;;;0.64;70.92;100915.34;5125181;28;20357;-70
2024/01/31 06:02:06;;;;;;;32.95;22.90;;;;;;;0.69;70.94;100917.13;5126008;28;20067;-69
2024/01/31 06:04:33;;;;;;;30.45;24.23;;;;;;;0.69;70.88;100917.13;5125977;28;20044;-70
2024/01/31 06:07:01;;;;;;;33.03;23.92;;;;;;;0.71;70.96;100918.00;5126426;28;20215;-70
2024/01/31 06:09:28;;;;;;;28.95;22.20;;;;;;;0.69;70.67;100916.25;5126496;28;20055;-70
2024/01/31 06:11:54;;;;;;;33.30;22.73;;;;;;;0.73;70.82;100918.03;5126157;28;20055;-70
2024/01/31 06:14:21;;;;;;;31.40;22.92;;;;;;;0.72;70.74;100914.53;5125879;28;20039;-70
2024/01/31 06:16:48;;;;;;;31.70;24.65;;;;;;;0.69;70.89;100918.84;5126416;28;20047;-70
2024/01/31 06:19:14;;;;;;;33.25;24.65;;;;;;;0.68;70.92;100909.28;5125832;28;20181;-70
2024/01/31 06:21:41;;;;;;;31.83;23.67;;;;;;;0.66;71.02;100911.88;5125473;28;20039;-70
2024/01/31 06:24:10;;;;;;;34.10;24.73;;;;;;;0.47;70.87;100878.63;5126046;28;20169;-70
2024/01/31 06:26:40;;;;;;;32.63;23.55;;;;;;;0.63;71.35;100914.47;5125242;28;20102;-70
2024/01/31 06:29:07;;;;;;;28.73;22.80;;;;;;;0.69;70.89;100924.06;5125684;28;20208;-70
2024/01/31 06:31:40;;;;;;;27.73;22.20;;;;;;;0.69;70.78;100924.94;5126200;28;20284;-70
2024/01/31 06:34:07;;;;;;;30.00;23.10;;;;;;;0.69;70.88;100921.47;5124800;28;20055;-70
2024/01/31 06:36:33;;;;;;;30.88;22.60;;;;;;;0.60;70.86;100917.03;5125867;28;20272;-70
2024/01/31 06:39:00;;;;;;;30.73;23.13;;;;;;;0.60;70.71;100912.69;5125970;28;20047;-70
2024/01/31 06:41:28;;;;;;;27.33;21.50;;;;;;;0.57;71.19;100912.66;5126156;28;20089;-70
2024/01/31 06:43:55;;;;;;;29.13;22.38;;;;;;;0.58;71.06;100914.41;5125803;28;20104;-70
2024/01/31 06:46:22;;;;;;;29.33;22.83;;;;;;;0.52;71.21;100916.97;5125790;28;20051;-70
2024/01/31 06:48:48;;;;;;;29.23;22.73;;;;;;;0.50;70.81;100921.28;5125843;28;20292;-70
2024/01/31 06:51:15;;;;;;;31.60;21.75;;;;;;;0.52;70.52;100930.00;5124651;28;20100;-69
2024/01/31 06:53:42;;;;;;;27.35;20.58;;;;;;;0.54;70.82;100932.63;5125848;28;20043;-70
2024/01/31 06:56:15;;;;;;;27.05;20.85;;;;;;;0.53;70.77;100936.09;5126167;28;20050;-70
2024/01/31 06:58:43;;;;;;;29.98;21.52;;;;;;;0.55;70.71;100929.16;5125552;28;20052;-70
2024/01/31 07:01:10;;;;;;;25.85;21.15;;;;;;;0.51;70.71;100932.59;5125711;28;20051;-70
2024/01/31 07:03:37;;;;;;;28.88;20.80;;;;;;;0.54;70.71;100937.84;5124624;28;20050;-69
2024/01/31 07:06:04;;;;;;;27.92;20.63;;;;;;;0.51;70.26;100933.47;5125822;28;20096;-70
2024/01/31 07:08:30;;;;;;;26.92;20.73;;;;;;;0.58;70.39;100937.03;5128865;28;20304;-70
2024/01/31 07:10:57;;;;;;;28.35;21.33;;;;;;;0.56;70.54;100947.44;5129564;28;20043;-70
2024/01/31 07:13:24;;;;;;;26.70;21.23;;;;;;;0.55;70.51;100943.06;5129195;28;20195;-71
2024/01/31 07:15:51;;;;;;;29.85;22.60;;;;;;;0.32;70.29;100905.44;5128977;28;20319;-69
2024/01/31 07:18:18;;;;;;;28.08;21.63;;;;;;;0.41;70.29;100915.09;5129606;28;20318;-70
2024/01/31 07:20:45;;;;;;;29.63;22.17;;;;;;;0.64;70.38;100957.06;5129169;28;20049;-70
2024/01/31 07:23:12;;;;;;;29.75;21.92;;;;;;;0.65;70.25;100949.25;5129107;28;20169;-70
2024/01/31 07:25:39;;;;;;;30.35;23.23;;;;;;;0.61;70.66;100953.56;5127973;28;20039;-70
2024/01/31 07:28:07;;;;;;;29.15;23.17;;;;;;;0.65;70.25;100959.69;5128827;28;20101;-70
2024/01/31 07:30:34;;;;;;;31.05;23.58;;;;;;;0.50;70.82;100931.72;5128996;28;20043;-70
2024/01/31 07:33:02;;;;;;;30.60;23.15;;;;;;;0.67;70.69;100960.59;5128888;28;20227;-70
2024/01/31 07:35:28;;;;;;;31.02;22.08;;;;;;;0.70;70.65;100955.41;5129178;28;20055;-70
2024/01/31 07:37:55;;;;;;;30.42;24.17;;;;;;;0.70;71.01;100959.75;5128781;28;20039;-70
2024/01/31 07:40:22;;;;;;;29.65;22.52;;;;;;;0.73;70.65;100958.06;5128193;28;20040;-70
2024/01/31 07:42:48;;;;;;;32.65;22.58;;;;;;;0.78;70.33;100958.09;5128797;28;20048;-70
2024/01/31 07:45:15;;;;;;;30.60;23.88;;;;;;;0.82;70.42;100959.88;5128781;28;20044;-70
2024/01/31 07:47:42;;;;;;;31.25;22.95;;;;;;;0.85;70.09;100960.78;5128356;28;20088;-70
2024/01/31 07:50:10;;;;;;;32.47;23.75;;;;;;;0.89;70.14;100957.34;5127466;28;20096;-70
2024/01/31 07:52:37;;;;;;;33.40;24.92;;;;;;;0.93;70.22;100966.94;5128521;28;20063;-70
2024/01/31 07:55:06;;;;;;;34.22;25.75;;;;;;;1.00;69.85;100964.41;5128531;28;20043;-70
2024/01/31 07:57:33;;;;;;;34.97;25.55;;;;;;;1.05;70.22;100954.88;5128216;28;20203;-70
2024/01/31 07:59:59;;;;;;;35.38;26.67;;;;;;;1.14;70.85;100957.56;5128759;28;20333;-70
2024/01/31 08:02:26;;;;;;;36.25;27.48;;;;;;;1.22;70.71;100953.28;5128601;28;20353;-70
2024/01/31 08:04:54;;;;;;;36.97;27.02;;;;;;;1.22;71.66;100948.06;5128082;28;20261;-70
2024/01/31 08:07:22;;;;;;;35.90;25.35;;;;;;;1.12;72.59;100947.09;5127364;28;20055;-70
2024/01/31 08:09:49;;;;;;;38.92;27.73;;;;;;;1.20;71.94;100944.56;5128543;28;20188;-70
2024/01/31 08:12:16;;;;;;;35.58;26.15;;;;;;;0.92;70.90;100875.56;5127565;28;20188;-70
2024/01/31 08:14:42;;;;;;;35.67;25.70;;;;;;;1.42;70.91;100954.31;5127849;28;20088;-70
2024/01/31 08:17:09;;;;;;;39.85;26.42;;;;;;;1.18;70.40;100904.50;5127997;28;20227;-70
2024/01/31 08:19:36;;;;;;;37.35;26.27;;;;;;;1.39;70.92;100948.19;5128079;28;20051;-70
2024/01/31 08:22:04;;;;;;;36.72;27.10;;;;;;;1.46;70.55;100949.97;5128189;28;20102;-70
2024/01/31 08:24:32;;;;;;;38.67;25.58;;;;;;;1.57;70.43;100956.16;5128438;28;20104;-70
2024/01/31 08:26:59;;;;;;;37.60;26.25;;;;;;;1.62;70.26;100959.69;5128238;28;20059;-71
2024/01/31 08:29:25;;;;;;;38.10;27.27;;;;;;;1.64;70.30;100955.34;5127781;28;20102;-70
2024/01/31 08:31:52;;;;;;;39.53;28.50;;;;;;;1.21;70.55;100884.50;5127759;28;20341;-70
2024/01/31 08:34:19;;;;;;;33.80;25.95;;;;;;;1.65;70.47;100956.22;5126589;28;20088;-70
2024/01/31 08:36:45;;;;;;;36.70;26.13;;;;;;;1.71;70.26;100954.53;5127742;28;20044;-69
2024/01/31 08:39:12;;;;;;;40.03;26.85;;;;;;;1.77;70.17;100956.31;5126567;28;20044;-69
2024/01/31 08:41:40;;;;;;;36.95;26.33;;;;;;;1.74;70.42;100957.16;5127981;28;20093;-70
2024/01/31 08:44:07;;;;;;;36.97;25.88;;;;;;;1.79;70.12;100959.81;5127577;28;20054;-70
2024/01/31 08:46:33;;;;;;;34.88;25.77;;;;;;;1.78;70.34;100963.28;5127333;28;20039;-70
2024/01/31 08:49:00;;;;;;;37.67;26.38;;;;;;;1.79;70.43;100965.91;5127757;28;20335;-70
2024/01/31 08:51:26;;;;;;;38.03;27.33;;;;;;;1.83;70.25;100956.34;5127662;28;20045;-70
2024/01/31 08:53:53;;;;;;;38.65;28.73;;;;;;;1.86;70.15;100964.22;5127451;28;20063;-70
2024/01/31 08:56:20;;;;;;;38.35;26.67;;;;;;;1.89;70.08;100962.47;5127088;28;20055;-70
2024/01/31 08:58:48;;;;;;;36.42;26.10;;;;;;;1.55;69.54;100882.09;5127212;28;20044;-70
2024/01/31 09:01:14;;;;;;;39.63;26.08;;;;;;;2.00;70.15;100957.31;5127266;28;20085;-70
2024/01/31 09:03:41;;;;;;;34.85;25.70;;;;;;;2.02;69.97;100967.78;5127175;28;20051;-70
2024/01/31 09:06:07;;;;;;;37.08;26.65;;;;;;;2.03;69.88;100959.94;5125969;28;20040;-70
2024/01/31 09:08:34;;;;;;;34.33;24.95;;;;;;;2.04;69.90;100959.06;5126761;28;20056;-70
2024/01/31 09:11:01;;;;;;;36.63;25.45;;;;;;;2.06;69.82;100959.94;5127112;28;20051;-70
2024/01/31 09:13:28;;;;;;;33.97;24.85;;;;;;;2.27;69.36;100953.94;5126635;28;20040;-70
2024/01/31 09:15:56;;;;;;;40.22;28.35;;;;;;;2.32;69.12;100954.84;5126741;28;20043;-71
2024/01/31 09:18:23;;;;;;;34.58;27.58;;;;;;;2.45;69.10;100946.16;5126673;28;20160;-71
2024/01/31 09:20:50;;;;;;;38.67;26.55;;;;;;;2.60;68.68;100954.91;5126881;28;20242;-70
2024/01/31 09:23:16;;;;;;;39.05;26.13;;;;;;;2.69;68.46;100955.81;5126835;28;20035;-70
2024/01/31 09:25:43;;;;;;;40.05;27.35;;;;;;;2.84;67.79;100942.75;5127181;28;20052;-70
2024/01/31 09:28:09;;;;;;;40.35;28.90;;;;;;;3.12;67.57;100948.03;5126525;28;20100;-70
2024/01/31 09:30:37;;;;;;;38.75;26.55;;;;;;;2.95;67.29;100874.69;5125770;28;20059;-70
2024/01/31 09:33:05;;;;;;;35.95;27.20;;;;;;;3.51;66.28;100953.25;5126909;28;20104;-71
2024/01/31 09:35:32;;;;;;;34.10;26.73;;;;;;;3.45;66.12;100949.75;5125506;28;20046;-70
2024/01/31 09:37:58;;;;;;;37.30;29.63;;;;;;;3.53;66.09;100963.72;5126615;28;20040;-70
2024/01/31 09:40:25;;;;;;;34.95;26.95;;;;;;;3.62;65.51;100953.22;5126202;28;20227;-70
2024/01/31 09:42:52;;;;;;;37.00;26.55;;;;;;;3.80;65.53;100954.94;5126541;28;20081;-70
2024/01/31 09:45:19;;;;;;;39.08;27.30;;;;;;;4.05;64.73;100942.63;5126530;28;20107;-70
2024/01/31 09:47:47;;;;;;;38.20;28.50;;;;;;;4.18;64.65;100942.59;5125309;28;20040;-70
2024/01/31 09:50:15;;;;;;;37.50;27.98;;;;;;;4.44;63.99;100936.38;5126445;28;20050;-70
2024/01/31 09:52:43;;;;;;;35.63;26.65;;;;;;;4.26;62.77;100884.84;5126337;28;20181;-70
2024/01/31 09:55:11;;;;;;;35.60;27.00;;;;;;;4.54;62.25;100931.94;5126254;28;20105;-71
2024/01/31 09:57:40;;;;;;;36.20;25.85;;;;;;;4.81;62.51;100909.00;5126353;28;20058;-70
2024/01/31 10:00:08;;;;;;;31.33;24.88;;;;;;;4.76;60.98;100879.28;5126238;28;20051;-70
2024/01/31 10:02:37;;;;;;;34.13;24.92;;;;;;;5.19;60.07;100907.88;5126229;28;20051;-70
2024/01/31 10:05:06;;;;;;;34.70;27.88;;;;;;;5.11;59.81;100868.50;5126232;28;20110;-70
2024/01/31 10:07:37;;;;;;;36.75;27.95;;;;;;;5.51;59.46;100904.06;5126104;28;20048;-70
2024/01/31 10:10:05;;;;;;;37.95;26.77;;;;;;;5.72;57.92;100895.97;5125899;28;20104;-70
2024/01/31 10:12:31;;;;;;;33.53;25.85;;;;;;;5.68;58.25;100863.56;5126078;28;20043;-70
2024/01/31 10:14:58;;;;;;;36.15;27.58;;;;;;;5.87;57.19;100900.19;5126138;28;20040;-70
2024/01/31 10:17:25;;;;;;;35.80;27.17;;;;;;;5.78;58.18;100888.88;5125874;28;20048;-70
2024/01/31 10:19:52;;;;;;;35.22;25.98;;;;;;;4.99;58.50;100749.50;5125489;28;20043;-71
2024/01/31 10:22:19;;;;;;;35.67;25.83;;;;;;;5.75;57.01;100880.13;5125948;28;20089;-71
2024/01/31 10:24:50;;;;;;;32.83;25.02;;;;;;;5.47;56.96;100813.81;5125972;28;20051;-70
2024/01/31 10:27:19;;;;;;;36.05;27.08;;;;;;;6.24;56.19;100876.91;5125664;28;20080;-71
2024/01/31 10:29:46;;;;;;;32.60;26.05;;;;;;;6.63;56.60;100863.16;5126337;28;20196;-71
2024/01/31 10:32:16;;;;;;;31.63;23.58;;;;;;;6.62;56.38;100860.56;5125905;28;20039;-71
2024/01/31 10:34:43;;;;;;;34.67;26.77;;;;;;;6.69;56.03;100846.41;5126121;28;20039;-71
2024/01/31 10:37:11;;;;;;;37.22;26.77;;;;;;;6.77;54.99;100852.41;5125975;28;20108;-71
2024/01/31 10:39:40;;;;;;;35.53;25.08;;;;;;;7.04;54.79;100843.22;5125817;28;20093;-71
2024/01/31 10:42:08;;;;;;;32.28;26.45;;;;;;;6.84;54.74;100782.06;5127671;28;20239;-71
2024/01/31 10:44:37;;;;;;;37.13;26.90;;;;;;;7.19;53.13;100842.06;5128827;28;20085;-70
2024/01/31 10:47:04;;;;;;;32.40;26.95;;;;;;;7.24;53.17;100841.09;5129884;28;20044;-70
2024/01/31 10:49:31;;;;;;;32.85;26.98;;;;;;;6.45;53.08;100634.31;5129429;28;20237;-70
2024/01/31 10:52:01;;;;;;;36.58;28.35;;;;;;;7.52;52.10;100845.91;5129697;28;20084;-70
2024/01/31 10:54:31;;;;;;;37.05;26.77;;;;;;;7.50;52.75;100843.28;5129641;28;20054;-71
2024/01/31 10:57:00;;;;;;;34.28;27.27;;;;;;;7.54;52.97;100844.09;5129666;28;20047;-71
2024/01/31 10:59:28;;;;;;;43.85;28.70;;;;;;;7.28;52.02;100844.56;5129359;28;20044;-71
2024/01/31 11:01:58;;;;;;;37.15;28.83;;;;;;;7.34;52.79;100839.19;5129511;28;20043;-70
2024/01/31 11:04:26;;;;;;;38.40;29.33;;;;;;;7.44;52.71;100842.53;5129470;28;20055;-71
2024/01/31 11:06:53;;;;;;;53.72;33.20;;;;;;;7.51;52.33;100833.59;5129214;28;20062;-71
2024/01/31 11:09:22;;;;;;;37.95;28.65;;;;;;;7.49;51.86;100838.91;5129462;28;20043;-71
2024/01/31 11:11:49;;;;;;;34.80;28.08;;;;;;;7.54;52.15;100829.13;5128894;28;20035;-70
2024/01/31 11:14:16;;;;;;;35.30;28.70;;;;;;;7.43;51.68;100806.50;5129368;28;20120;-71
2024/01/31 11:16:44;;;;;;;40.17;29.70;;;;;;;7.53;51.59;100819.50;5129211;28;20051;-71